Time;durP1;ratioP1;P1;durP2;ratioP2;P2;SDS_P1;SDS_P2;PMS_P1;PMS_P2;Temp;Humidity;BMP_temperature;BMP_pressure;BME280_temperature;BME280_humidity;BME280_pressure;Samples;Min_cycle;Max_cycle;Signal;HPM_P1;HPM_P2
2023/04/26 00:00:16;;;;;;;1.53;1.37;;;5.10;98.20;;;;;;5090695;28;20465;-76
2023/04/26 00:02:44;;;;;;;1.60;1.50;;;5.10;98.20;;;;;;5087706;28;20487;-76
2023/04/26 00:05:11;;;;;;;1.50;1.30;;;5.00;98.20;;;;;;5092467;28;20499;-75
2023/04/26 00:07:38;;;;;;;1.53;1.30;;;5.00;98.20;;;;;;5079697;28;20472;-76
2023/04/26 00:10:05;;;;;;;1.53;1.30;;;5.00;98.20;;;;;;5088248;28;20463;-76
2023/04/26 00:12:31;;;;;;;1.50;1.30;;;5.00;98.20;;;;;;5091767;28;20486;-75
2023/04/26 00:14:58;;;;;;;1.60;1.50;;;4.90;98.20;;;;;;5100672;28;20489;-76
2023/04/26 00:17:25;;;;;;;1.50;1.40;;;4.90;98.20;;;;;;5088466;28;20476;-75
2023/04/26 00:19:53;;;;;;;1.60;1.40;;;4.90;98.20;;;;;;5098338;28;20967;-75
2023/04/26 00:22:20;;;;;;;1.57;1.40;;;4.90;98.20;;;;;;5081821;28;20569;-76
2023/04/26 00:24:47;;;;;;;1.57;1.40;;;4.90;98.20;;;;;;5086991;28;20514;-75
2023/04/26 00:27:14;;;;;;;1.60;1.50;;;4.90;98.20;;;;;;5078164;28;20468;-76
2023/04/26 00:29:41;;;;;;;1.57;1.30;;;5.00;98.20;;;;;;5089306;28;20556;-76
2023/04/26 00:32:08;;;;;;;1.57;1.40;;;4.90;98.20;;;;;;5078322;28;20484;-76
2023/04/26 00:34:35;;;;;;;1.60;1.30;;;4.90;98.20;;;;;;5084041;28;20480;-76
2023/04/26 00:37:04;;;;;;;1.53;1.40;;;4.90;98.20;;;;;;5090749;28;20483;-76
2023/04/26 00:39:31;;;;;;;1.57;1.37;;;4.90;98.20;;;;;;5099730;28;20949;-76
2023/04/26 00:41:58;;;;;;;1.60;1.40;;;4.90;98.20;;;;;;5080599;28;20529;-76
2023/04/26 00:44:25;;;;;;;1.53;1.37;;;4.90;98.20;;;;;;5081851;28;20456;-75
2023/04/26 00:46:53;;;;;;;1.57;1.40;;;4.90;98.20;;;;;;5077848;28;20670;-76
2023/04/26 00:49:24;;;;;;;1.60;1.47;;;4.90;98.20;;;;;;5084667;28;20968;-76
2023/04/26 00:51:52;;;;;;;1.57;1.40;;;4.80;98.20;;;;;;5088988;28;20488;-75
2023/04/26 00:54:21;;;;;;;1.60;1.40;;;4.80;98.20;;;;;;5101892;28;20468;-76
2023/04/26 00:56:50;;;;;;;1.50;1.40;;;4.80;98.20;;;;;;5089302;28;20676;-76
2023/04/26 00:59:18;;;;;;;1.60;1.30;;;4.70;98.20;;;;;;5101939;28;20520;-76
2023/04/26 01:01:45;;;;;;;1.60;1.40;;;4.70;98.20;;;;;;5090667;28;20514;-75
2023/04/26 01:04:13;;;;;;;1.60;1.40;;;4.70;98.20;;;;;;5100630;28;20471;-75
2023/04/26 01:06:41;;;;;;;1.60;1.50;;;4.70;98.20;;;;;;5083940;28;21004;-76
2023/04/26 01:09:11;;;;;;;1.60;1.40;;;4.60;98.20;;;;;;5099448;28;20975;-75
2023/04/26 01:11:39;;;;;;;1.60;1.40;;;4.60;98.20;;;;;;5086648;28;20511;-75
2023/04/26 01:14:07;;;;;;;1.50;1.30;;;4.60;98.20;;;;;;5085195;28;20453;-76
2023/04/26 01:16:35;;;;;;;1.50;1.30;;;4.50;98.20;;;;;;5082285;28;20923;-75
2023/04/26 01:19:08;;;;;;;1.60;1.43;;;4.50;98.20;;;;;;5087764;28;20833;-76
2023/04/26 01:21:35;;;;;;;1.57;1.40;;;4.50;98.20;;;;;;5080436;28;20901;-75
2023/04/26 01:24:03;;;;;;;1.53;1.30;;;4.50;98.20;;;;;;5105233;28;20825;-76
2023/04/26 01:26:30;;;;;;;1.60;1.40;;;4.50;98.20;;;;;;5079470;28;20480;-75
2023/04/26 01:28:57;;;;;;;1.53;1.40;;;4.50;98.20;;;;;;5083352;28;20889;-75
2023/04/26 01:31:24;;;;;;;1.60;1.50;;;4.40;98.20;;;;;;5080820;28;20471;-75
2023/04/26 01:33:51;;;;;;;1.57;1.30;;;4.40;98.20;;;;;;5102303;28;20488;-76
2023/04/26 01:36:18;;;;;;;1.60;1.50;;;4.40;98.20;;;;;;5077126;28;20488;-74
2023/04/26 01:38:45;;;;;;;1.60;1.50;;;4.40;98.20;;;;;;5085210;28;20456;-76
2023/04/26 01:41:13;;;;;;;1.60;1.40;;;4.40;98.20;;;;;;5078682;28;20491;-75
2023/04/26 01:43:39;;;;;;;1.60;1.40;;;4.40;98.20;;;;;;5086891;28;20461;-76
2023/04/26 01:46:06;;;;;;;1.67;1.57;;;4.30;98.20;;;;;;5086084;28;20559;-75
2023/04/26 01:48:33;;;;;;;1.50;1.30;;;4.30;98.20;;;;;;5095777;28;20456;-76
2023/04/26 01:51:06;;;;;;;1.60;1.40;;;4.30;98.20;;;;;;5077674;28;20467;-76
2023/04/26 01:53:33;;;;;;;1.50;1.30;;;4.30;98.20;;;;;;5071729;28;20473;-75
2023/04/26 01:56:01;;;;;;;1.60;1.40;;;4.30;98.20;;;;;;5073779;28;20542;-76
2023/04/26 01:58:29;;;;;;;1.53;1.40;;;4.30;98.20;;;;;;5083161;28;20984;-76
2023/04/26 02:00:56;;;;;;;1.60;1.40;;;4.20;98.20;;;;;;5075412;28;20642;-75
2023/04/26 02:03:23;;;;;;;1.50;1.30;;;4.20;98.20;;;;;;5078005;28;20541;-76
2023/04/26 02:05:50;;;;;;;1.53;1.40;;;4.20;98.20;;;;;;5075141;28;20507;-76
2023/04/26 02:08:16;;;;;;;1.57;1.40;;;4.20;98.20;;;;;;5084603;28;20460;-76
2023/04/26 02:10:43;;;;;;;1.60;1.50;;;4.20;98.20;;;;;;5085367;28;20471;-76
2023/04/26 02:13:10;;;;;;;1.57;1.43;;;4.20;98.20;;;;;;5073011;28;20985;-75
2023/04/26 02:15:38;;;;;;;1.60;1.50;;;4.10;98.20;;;;;;5086729;28;21015;-75
2023/04/26 02:18:05;;;;;;;1.60;1.40;;;4.10;98.20;;;;;;5074743;28;20487;-76
2023/04/26 02:20:32;;;;;;;1.60;1.43;;;4.10;98.20;;;;;;5085224;28;20468;-76
2023/04/26 02:22:59;;;;;;;1.53;1.37;;;4.10;98.20;;;;;;5068908;28;20492;-76
2023/04/26 02:25:26;;;;;;;2.63;2.43;;;4.10;98.20;;;;;;5088711;28;20487;-76
2023/04/26 02:27:52;;;;;;;1.50;1.40;;;4.10;98.20;;;;;;5066957;28;20472;-76
2023/04/26 02:30:19;;;;;;;1.63;1.53;;;4.00;98.20;;;;;;5085418;28;20456;-76
2023/04/26 02:32:47;;;;;;;1.60;1.50;;;4.00;98.20;;;;;;5068077;28;20475;-76
2023/04/26 02:35:14;;;;;;;1.53;1.40;;;4.00;98.20;;;;;;5081644;28;20956;-76
2023/04/26 02:37:41;;;;;;;1.60;1.43;;;4.00;98.20;;;;;;5068318;28;20493;-76
2023/04/26 02:40:10;;;;;;;1.57;1.40;;;4.00;98.20;;;;;;5081652;28;20468;-76
2023/04/26 02:42:37;;;;;;;1.53;1.40;;;4.00;98.20;;;;;;5072855;28;20472;-75
2023/04/26 02:45:05;;;;;;;1.50;1.40;;;3.90;98.20;;;;;;5082119;28;20892;-75
2023/04/26 02:47:32;;;;;;;1.57;1.40;;;3.90;98.20;;;;;;5071786;28;20559;-75
2023/04/26 02:50:00;;;;;;;1.60;1.40;;;3.90;98.20;;;;;;5085338;28;20941;-75
2023/04/26 02:52:27;;;;;;;1.60;1.50;;;3.90;98.20;;;;;;5076181;28;20520;-74
2023/04/26 02:54:54;;;;;;;1.60;1.50;;;3.80;98.20;;;;;;5086770;28;20485;-75
2023/04/26 02:57:21;;;;;;;1.80;1.70;;;3.80;98.20;;;;;;5073054;28;20478;-75
2023/04/26 02:59:48;;;;;;;1.50;1.40;;;3.80;98.20;;;;;;5083922;28;20468;-75
2023/04/26 03:02:14;;;;;;;1.53;1.40;;;3.80;98.20;;;;;;5079047;28;20484;-75
2023/04/26 03:04:41;;;;;;;1.57;1.40;;;3.70;98.20;;;;;;5089346;28;20487;-74
2023/04/26 03:07:09;;;;;;;1.57;1.40;;;3.70;98.20;;;;;;5073755;28;21008;-75
2023/04/26 03:09:37;;;;;;;2.90;2.70;;;3.70;98.20;;;;;;5083343;28;20460;-75
2023/04/26 03:12:06;;;;;;;1.60;1.40;;;3.70;98.20;;;;;;5078669;28;20579;-75
2023/04/26 03:14:33;;;;;;;1.60;1.40;;;3.70;98.20;;;;;;5083636;28;20488;-74
2023/04/26 03:17:00;;;;;;;1.50;1.30;;;3.60;98.20;;;;;;5077576;28;21058;-75
2023/04/26 03:19:27;;;;;;;1.67;1.57;;;3.60;98.20;;;;;;5088450;28;20746;-75
2023/04/26 03:21:54;;;;;;;1.60;1.50;;;3.50;98.20;;;;;;5076658;28;20480;-75
2023/04/26 03:24:22;;;;;;;1.60;1.43;;;3.50;98.20;;;;;;5080699;28;20463;-75
2023/04/26 03:26:49;;;;;;;1.53;1.30;;;3.50;98.20;;;;;;5074255;28;20484;-75
2023/04/26 03:29:16;;;;;;;1.53;1.40;;;3.50;98.20;;;;;;5085178;28;20456;-74
2023/04/26 03:31:43;;;;;;;1.60;1.50;;;3.50;98.20;;;;;;5080680;28;20502;-75
2023/04/26 03:34:10;;;;;;;1.57;1.40;;;3.40;98.20;;;;;;5083108;28;20547;-75
2023/04/26 03:36:37;;;;;;;1.57;1.40;;;3.40;98.20;;;;;;5078157;28;20484;-75
2023/04/26 03:39:04;;;;;;;1.60;1.50;;;3.40;98.20;;;;;;5078318;28;20561;-75
2023/04/26 03:41:34;;;;;;;1.53;1.40;;;3.40;98.20;;;;;;5078513;28;20559;-74
2023/04/26 03:44:01;;;;;;;1.60;1.40;;;3.40;98.20;;;;;;5077053;28;20543;-74
2023/04/26 03:46:28;;;;;;;1.60;1.50;;;3.40;98.20;;;;;;5077718;28;20887;-75
2023/04/26 03:48:55;;;;;;;1.60;1.40;;;3.30;98.20;;;;;;5083032;28;20547;-75
2023/04/26 03:51:21;;;;;;;1.57;1.40;;;3.30;98.20;;;;;;5077741;28;20472;-75
2023/04/26 03:53:48;;;;;;;1.60;1.43;;;3.30;98.20;;;;;;5082483;28;20471;-75
2023/04/26 03:56:15;;;;;;;1.57;1.40;;;3.20;98.20;;;;;;5078090;28;20488;-75
2023/04/26 03:58:44;;;;;;;1.60;1.40;;;3.20;98.20;;;;;;5075484;28;20484;-75
2023/04/26 04:01:10;;;;;;;1.57;1.40;;;3.20;98.20;;;;;;5078650;28;20481;-75
2023/04/26 04:03:37;;;;;;;1.57;1.40;;;3.20;98.20;;;;;;5082539;28;20464;-75
2023/04/26 04:06:04;;;;;;;1.60;1.50;;;3.20;98.20;;;;;;5077461;28;20479;-74
2023/04/26 04:08:31;;;;;;;1.60;1.50;;;3.10;98.20;;;;;;5086319;22;20458;-78
2023/04/26 04:10:58;;;;;;;1.60;1.43;;;3.10;98.20;;;;;;4995075;28;20460;-78
2023/04/26 04:13:25;;;;;;;1.53;1.40;;;3.10;98.20;;;;;;4988813;28;20460;-78
2023/04/26 04:15:53;;;;;;;1.60;1.50;;;3.10;98.20;;;;;;4988810;28;20453;-76
2023/04/26 04:18:20;;;;;;;1.60;1.50;;;3.10;98.20;;;;;;4993927;28;20512;-77
2023/04/26 04:20:47;;;;;;;1.70;1.60;;;3.10;98.20;;;;;;4993202;28;20461;-75
2023/04/26 04:23:15;;;;;;;1.60;1.43;;;3.00;98.20;;;;;;4983189;28;20484;-74
2023/04/26 04:25:42;;;;;;;1.57;1.40;;;3.00;98.20;;;;;;4978024;28;20481;-74
2023/04/26 04:28:10;;;;;;;1.60;1.50;;;3.00;98.20;;;;;;4964789;28;20598;-74
2023/04/26 04:30:36;;;;;;;1.60;1.50;;;3.00;98.20;;;;;;4982314;28;20492;-74
2023/04/26 04:33:04;;;;;;;1.70;1.60;;;3.00;98.20;;;;;;4961084;28;20493;-75
2023/04/26 04:35:32;;;;;;;1.50;1.40;;;3.00;98.20;;;;;;4978112;28;20475;-73
2023/04/26 04:37:59;;;;;;;1.60;1.40;;;3.00;98.20;;;;;;4978619;28;20489;-76
2023/04/26 04:40:27;;;;;;;1.57;1.40;;;3.00;98.20;;;;;;4983016;28;20876;-74
2023/04/26 04:42:54;;;;;;;1.60;1.40;;;3.00;98.20;;;;;;4978050;28;20897;-73
2023/04/26 04:45:21;;;;;;;2.67;2.47;;;3.00;98.20;;;;;;4983274;28;21011;-74
2023/04/26 04:47:48;;;;;;;1.60;1.50;;;3.00;98.20;;;;;;4976122;28;20484;-77
2023/04/26 04:50:16;;;;;;;1.50;1.40;;;3.00;98.20;;;;;;4985762;28;20489;-78
2023/04/26 04:52:43;;;;;;;1.57;1.40;;;3.00;98.20;;;;;;4980000;28;20515;-74
2023/04/26 04:55:10;;;;;;;1.60;1.50;;;3.00;98.20;;;;;;4983112;28;20458;-74
2023/04/26 04:57:37;;;;;;;1.57;1.40;;;3.00;98.20;;;;;;4987263;28;20515;-73
2023/04/26 05:00:09;;;;;;;1.60;1.40;;;3.00;98.20;;;;;;4981660;28;20802;-73
2023/04/26 05:02:35;;;;;;;1.53;1.40;;;3.10;98.20;;;;;;4958974;28;21145;-75
2023/04/26 05:05:03;;;;;;;1.60;1.40;;;3.10;98.20;;;;;;4980046;28;20465;-75
2023/04/26 05:07:31;;;;;;;1.70;1.60;;;3.10;98.20;;;;;;4957141;28;21067;-77
2023/04/26 05:09:58;;;;;;;1.60;1.50;;;3.10;98.20;;;;;;4982938;28;20895;-75
2023/04/26 05:12:25;;;;;;;1.57;1.40;;;3.20;98.20;;;;;;5003941;28;21125;-75
2023/04/26 05:14:52;;;;;;;1.60;1.40;;;3.20;98.20;;;;;;4979482;28;20480;-74
2023/04/26 05:17:18;;;;;;;1.60;1.40;;;3.20;98.20;;;;;;4984316;28;20484;-77
2023/04/26 05:19:46;;;;;;;1.60;1.40;;;3.30;98.20;;;;;;4987717;28;20500;-77
2023/04/26 05:22:16;;;;;;;1.60;1.40;;;3.40;98.20;;;;;;4996088;28;20485;-75
2023/04/26 05:24:45;;;;;;;1.60;1.40;;;3.50;98.20;;;;;;4983807;28;21185;-78
2023/04/26 05:27:12;;;;;;;1.70;1.60;;;3.60;98.20;;;;;;4981527;28;20556;-75
2023/04/26 05:29:39;;;;;;;1.53;1.37;;;3.80;98.20;;;;;;4983909;28;20728;-78
2023/04/26 05:32:06;;;;;;;1.57;1.40;;;4.00;98.20;;;;;;4973510;28;20910;-79
2023/04/26 05:34:32;;;;;;;1.57;1.40;;;4.30;98.20;;;;;;4976405;28;20463;-78
2023/04/26 05:37:00;;;;;;;1.63;1.53;;;4.60;98.20;;;;;;4975097;28;20489;-73
2023/04/26 05:39:27;;;;;;;1.57;1.30;;;4.80;98.20;;;;;;4982005;28;20946;-72
2023/04/26 05:41:55;;;;;;;1.57;1.30;;;5.00;98.20;;;;;;4971571;28;20484;-75
2023/04/26 05:44:21;;;;;;;1.50;1.30;;;5.30;98.20;;;;;;5004301;28;20461;-75
2023/04/26 05:46:48;;;;;;;1.50;1.30;;;5.50;98.20;;;;;;4975608;28;20827;-76
2023/04/26 05:49:15;;;;;;;1.57;1.30;;;5.80;98.20;;;;;;4981247;28;20481;-75
2023/04/26 05:51:42;;;;;;;1.50;1.30;;;6.00;98.20;;;;;;4972030;28;20515;-75
2023/04/26 05:54:09;;;;;;;1.60;1.40;;;6.20;98.20;;;;;;4980953;28;20461;-75
2023/04/26 05:56:35;;;;;;;1.57;1.30;;;6.40;98.20;;;;;;4991658;28;20567;-76
2023/04/26 05:59:03;;;;;;;1.50;1.30;;;6.60;98.20;;;;;;4976549;28;20879;-75
2023/04/26 06:01:30;;;;;;;1.50;1.30;;;6.90;98.20;;;;;;4973346;28;20592;-76
2023/04/26 06:03:57;;;;;;;1.53;1.30;;;7.10;98.20;;;;;;4980176;28;20574;-76
2023/04/26 06:06:24;;;;;;;1.57;1.30;;;7.20;98.20;;;;;;4974394;28;20861;-75
2023/04/26 06:08:50;;;;;;;1.60;1.43;;;7.40;98.20;;;;;;4979154;28;20490;-75
2023/04/26 06:11:17;;;;;;;1.53;1.30;;;7.60;98.20;;;;;;4968665;28;20945;-74
2023/04/26 06:13:44;;;;;;;1.50;1.20;;;7.80;98.20;;;;;;5010518;28;20461;-76
2023/04/26 06:16:12;;;;;;;1.60;1.40;;;7.90;98.20;;;;;;4966503;28;20877;-75
2023/04/26 06:18:39;;;;;;;1.50;1.30;;;8.10;98.20;;;;;;4969069;28;20497;-75
2023/04/26 06:21:06;;;;;;;1.50;1.20;;;8.20;98.20;;;;;;4974192;28;20472;-73
2023/04/26 06:23:33;;;;;;;1.50;1.20;;;8.40;98.20;;;;;;4981637;28;20464;-73
2023/04/26 06:26:00;;;;;;;1.50;1.20;;;8.60;98.20;;;;;;4971950;28;20849;-75
2023/04/26 06:28:26;;;;;;;1.50;1.10;;;8.80;98.20;;;;;;4975593;28;20476;-76
2023/04/26 06:30:53;;;;;;;1.50;1.20;;;9.00;98.20;;;;;;4972960;28;20465;-75
2023/04/26 06:33:21;;;;;;;1.50;1.10;;;9.20;98.20;;;;;;4980126;28;20460;-74
2023/04/26 06:35:48;;;;;;;1.50;1.17;;;9.30;98.20;;;;;;4973638;28;20466;-76
2023/04/26 06:38:15;;;;;;;1.50;1.10;;;9.40;98.20;;;;;;4981386;28;20580;-76
2023/04/26 06:40:42;;;;;;;1.50;1.20;;;9.60;98.20;;;;;;4984146;28;21065;-75
2023/04/26 06:43:09;;;;;;;1.50;1.10;;;9.70;98.10;;;;;;4971569;28;20498;-76
2023/04/26 06:45:36;;;;;;;1.50;1.20;;;9.80;98.20;;;;;;5003947;28;20472;-75
2023/04/26 06:48:03;;;;;;;1.50;1.20;;;9.80;98.20;;;;;;4973007;28;20501;-73
2023/04/26 06:50:32;;;;;;;1.50;1.30;;;9.90;97.30;;;;;;4983791;28;20956;-76
2023/04/26 06:52:59;;;;;;;1.60;1.30;;;10.10;97.30;;;;;;4968154;28;20815;-76
2023/04/26 06:55:25;;;;;;;1.50;1.10;;;10.20;96.40;;;;;;4981316;28;20477;-76
2023/04/26 06:57:52;;;;;;;1.50;1.10;;;10.30;97.60;;;;;;4976334;28;20492;-74
2023/04/26 07:00:20;;;;;;;1.50;1.10;;;10.50;97.00;;;;;;4982705;28;20520;-76
2023/04/26 07:02:46;;;;;;;1.50;1.10;;;10.50;95.90;;;;;;4970897;28;20510;-74
2023/04/26 07:05:14;;;;;;;1.50;1.13;;;10.60;95.90;;;;;;4984695;28;20461;-77
2023/04/26 07:07:42;;;;;;;1.50;1.00;;;10.70;96.20;;;;;;4981165;28;20539;-75
2023/04/26 07:10:09;;;;;;;1.50;1.00;;;10.70;95.70;;;;;;4983580;28;21000;-75
2023/04/26 07:12:36;;;;;;;3.23;3.03;;;10.80;95.50;;;;;;4977435;28;20723;-73
2023/04/26 07:15:05;;;;;;;1.50;1.00;;;10.90;94.60;;;;;;4975085;28;20954;-74
2023/04/26 07:17:32;;;;;;;1.50;1.10;;;11.00;94.80;;;;;;4973001;28;20922;-74
2023/04/26 07:19:58;;;;;;;1.50;1.00;;;11.10;94.50;;;;;;4982676;28;20574;-76
2023/04/26 07:22:25;;;;;;;1.50;0.97;;;11.20;94.70;;;;;;4973027;28;20481;-75
2023/04/26 07:24:53;;;;;;;1.50;1.20;;;11.20;93.80;;;;;;4983426;28;20472;-76
2023/04/26 07:27:20;;;;;;;1.50;1.00;;;11.30;92.90;;;;;;4990962;28;20865;-74
2023/04/26 07:29:47;;;;;;;1.50;1.10;;;11.40;94.60;;;;;;4979016;28;20509;-73
2023/04/26 07:32:14;;;;;;;1.40;1.00;;;11.60;92.60;;;;;;4973839;28;20495;-73
2023/04/26 07:34:40;;;;;;;1.47;1.00;;;11.70;92.60;;;;;;4986216;28;20480;-74
2023/04/26 07:37:08;;;;;;;1.47;1.00;;;11.70;91.10;;;;;;4974803;28;20476;-74
2023/04/26 07:39:34;;;;;;;1.50;1.00;;;11.70;90.80;;;;;;4982892;28;20527;-73
2023/04/26 07:42:03;;;;;;;1.47;1.00;;;11.70;90.20;;;;;;4975215;28;20477;-75
2023/04/26 07:44:30;;;;;;;1.50;1.00;;;11.80;90.60;;;;;;4990916;28;20472;-74
2023/04/26 07:46:56;;;;;;;1.50;1.00;;;11.80;90.50;;;;;;4973263;28;20492;-73
2023/04/26 07:49:23;;;;;;;1.40;1.00;;;11.80;90.50;;;;;;4981222;28;20573;-75
2023/04/26 07:51:51;;;;;;;1.50;1.10;;;11.70;90.60;;;;;;4975769;28;20670;-74
2023/04/26 07:54:17;;;;;;;1.50;1.00;;;11.80;91.30;;;;;;4982156;28;20507;-75
2023/04/26 07:56:44;;;;;;;1.50;1.10;;;12.00;90.60;;;;;;4975440;28;20603;-75
2023/04/26 07:59:12;;;;;;;1.50;1.10;;;12.10;90.00;;;;;;4981167;28;20493;-74
2023/04/26 08:01:39;;;;;;;1.50;1.00;;;12.20;87.00;;;;;;4976693;28;20808;-75
2023/04/26 08:04:06;;;;;;;1.50;1.10;;;12.30;86.90;;;;;;4983164;28;20461;-74
2023/04/26 08:06:33;;;;;;;1.50;1.00;;;12.30;85.70;;;;;;4977576;28;20480;-74
2023/04/26 08:08:59;;;;;;;1.50;1.10;;;12.40;86.10;;;;;;4980729;28;20584;-75
2023/04/26 08:11:26;;;;;;;1.50;1.00;;;12.40;84.70;;;;;;4970203;28;20485;-75
2023/04/26 08:13:53;;;;;;;1.50;1.07;;;12.50;84.40;;;;;;4979702;28;20875;-75
2023/04/26 08:16:21;;;;;;;1.47;1.00;;;12.60;83.80;;;;;;4977370;28;20857;-74
2023/04/26 08:18:48;;;;;;;1.47;1.00;;;12.60;84.70;;;;;;4979854;28;20872;-76
2023/04/26 08:21:14;;;;;;;1.50;1.00;;;12.60;86.60;;;;;;4974992;28;20489;-76
2023/04/26 08:23:41;;;;;;;1.50;1.00;;;12.70;86.50;;;;;;4984730;28;20461;-75
2023/04/26 08:26:08;;;;;;;1.50;1.00;;;12.80;85.60;;;;;;4976325;28;20575;-75
2023/04/26 08:28:35;;;;;;;1.50;1.00;;;12.90;85.00;;;;;;4984297;28;20490;-74
2023/04/26 08:31:02;;;;;;;1.50;1.00;;;13.00;85.30;;;;;;4970810;28;20551;-74
2023/04/26 08:33:30;;;;;;;1.43;0.90;;;13.10;83.60;;;;;;4978930;28;20478;-75
2023/04/26 08:35:59;;;;;;;1.47;1.00;;;13.30;84.30;;;;;;4970496;28;20461;-74
2023/04/26 08:38:26;;;;;;;1.50;1.00;;;13.40;84.30;;;;;;4983171;28;20531;-75
2023/04/26 08:40:55;;;;;;;1.50;0.90;;;13.50;84.90;;;;;;4975819;28;20512;-75
2023/04/26 08:43:23;;;;;;;1.50;1.00;;;13.60;83.00;;;;;;5024760;28;20972;-74
2023/04/26 08:45:50;;;;;;;1.50;1.00;;;13.70;81.80;;;;;;4971420;28;20472;-75
2023/04/26 08:48:18;;;;;;;1.50;0.90;;;13.60;81.00;;;;;;4995228;28;20969;-75
2023/04/26 08:50:46;;;;;;;1.50;1.00;;;13.50;82.40;;;;;;4984994;28;20454;-74
2023/04/26 08:53:16;;;;;;;1.43;0.90;;;13.30;82.20;;;;;;4992738;28;20592;-75
2023/04/26 08:55:48;;;;;;;1.50;1.00;;;13.20;81.20;;;;;;4984264;28;20457;-75
2023/04/26 08:58:15;;;;;;;1.40;0.90;;;13.10;81.50;;;;;;4985287;28;20483;-75
2023/04/26 09:00:44;;;;;;;1.43;1.00;;;13.10;81.70;;;;;;4985297;28;20898;-74
2023/04/26 09:03:11;;;;;;;1.50;1.00;;;13.30;81.20;;;;;;4974447;28;20522;-76
2023/04/26 09:05:42;;;;;;;1.43;0.90;;;13.50;82.10;;;;;;4985665;28;20838;-75
2023/04/26 09:08:15;;;;;;;1.50;1.03;;;13.80;81.20;;;;;;4992010;28;20485;-79
2023/04/26 09:10:42;;;;;;;1.50;1.00;;;13.90;80.00;;;;;;4983520;28;20522;-79
2023/04/26 09:13:10;;;;;;;1.50;1.00;;;14.00;79.50;;;;;;4984736;28;20501;-75
2023/04/26 09:15:37;;;;;;;1.50;0.97;;;14.00;79.70;;;;;;4984111;28;20954;-77
2023/04/26 09:18:17;;;;;;;1.50;1.23;;;14.00;78.50;;;;;;4979060;28;20496;-75
2023/04/26 09:20:45;;;;;;;1.50;0.97;;;14.00;78.90;;;;;;4984286;28;20860;-76
2023/04/26 09:23:15;;;;;;;1.50;1.00;;;14.00;78.00;;;;;;4971981;28;20518;-75
2023/04/26 09:25:42;;;;;;;1.50;1.00;;;14.00;78.70;;;;;;4984956;28;20482;-76
2023/04/26 09:28:20;;;;;;;1.40;0.90;;;13.90;78.40;;;;;;4977612;28;20489;-75
2023/04/26 09:30:47;;;;;;;1.47;0.90;;;13.90;77.60;;;;;;4985165;28;20482;-77
2023/04/26 09:33:13;;;;;;;1.50;1.00;;;13.90;78.90;;;;;;4967415;28;20473;-76
2023/04/26 09:35:42;;;;;;;1.50;1.00;;;13.90;76.20;;;;;;4982714;28;20485;-75
2023/04/26 09:38:12;;;;;;;1.43;1.00;;;13.80;77.40;;;;;;4974065;28;20477;-74
2023/04/26 09:40:41;;;;;;;1.40;0.90;;;13.80;76.90;;;;;;4984070;28;20496;-75
2023/04/26 09:43:10;;;;;;;1.50;1.00;;;13.90;77.10;;;;;;4957017;28;20489;-77
2023/04/26 09:45:45;;;;;;;1.40;0.90;;;14.10;76.40;;;;;;4985748;28;20551;-78
2023/04/26 09:48:20;;;;;;;1.47;0.90;;;14.20;77.10;;;;;;4991077;28;20514;-76
2023/04/26 09:50:49;;;;;;;1.47;0.90;;;14.50;76.20;;;;;;4975988;28;20886;-77
2023/04/26 09:53:27;;;;;;;1.43;0.90;;;14.80;76.20;;;;;;4992867;28;20534;-76
2023/04/26 09:55:55;;;;;;;1.50;1.00;;;15.30;75.00;;;;;;4975122;28;20526;-79
2023/04/26 09:58:23;;;;;;;1.43;0.90;;;15.60;74.20;;;;;;4981117;28;20457;-78
2023/04/26 10:00:51;;;;;;;1.50;1.10;;;15.70;74.30;;;;;;4973901;28;20489;-76
2023/04/26 10:03:19;;;;;;;1.50;1.00;;;15.80;72.90;;;;;;4988273;28;20476;-75
2023/04/26 10:05:46;;;;;;;1.50;0.90;;;15.60;74.20;;;;;;4979385;28;20833;-76
2023/04/26 10:08:13;;;;;;;1.50;0.90;;;15.70;74.50;;;;;;5001091;28;20519;-76
2023/04/26 10:10:40;;;;;;;1.43;0.90;;;15.70;74.20;;;;;;5036069;23;20515;-80
2023/04/26 10:13:09;;;;;;;1.43;0.90;;;15.90;74.40;;;;;;4996694;28;20476;-80
2023/04/26 10:15:36;;;;;;;1.50;1.00;;;16.00;74.10;;;;;;5035111;28;21034;-80
2023/04/26 10:18:03;;;;;;;1.50;1.00;;;16.00;70.40;;;;;;4999231;28;20528;-80
2023/04/26 10:20:30;;;;;;;1.50;0.90;;;15.90;71.40;;;;;;5022828;28;20491;-80
2023/04/26 10:23:00;;;;;;;1.43;0.90;;;15.80;71.40;;;;;;4993907;28;20491;-80
2023/04/26 10:25:36;;;;;;;1.43;0.90;;;15.50;72.10;;;;;;5021034;28;20537;-79
2023/04/26 10:28:03;;;;;;;1.50;0.90;;;15.40;75.10;;;;;;4992764;28;20487;-80
2023/04/26 10:30:32;;;;;;;1.43;0.90;;;15.40;73.00;;;;;;5024254;28;20506;-80
2023/04/26 10:33:17;;;;;;;1.47;0.97;;;15.60;71.60;;;;;;4999957;28;20554;-80
2023/04/26 10:36:07;;;;;;;1.50;1.00;;;16.10;70.80;;;;;;5022840;28;20485;-80
2023/04/26 10:38:35;;;;;;;1.43;0.90;;;16.30;70.00;;;;;;4991592;28;20498;-79
2023/04/26 10:41:31;;;;;;;1.47;0.90;;;16.30;71.60;;;;;;5010069;28;20488;-79
2023/04/26 10:44:01;;;;;;;1.47;0.90;;;16.30;71.60;;;;;;5011965;28;20460;-80
2023/04/26 10:46:37;;;;;;;1.43;0.90;;;16.40;70.70;;;;;;5005874;28;20481;-80
2023/04/26 10:49:17;;;;;;;1.50;1.00;;;16.80;69.60;;;;;;5009083;28;20577;-80
2023/04/26 10:52:11;;;;;;;1.47;0.90;;;17.10;67.80;;;;;;5002855;28;20487;-79
2023/04/26 10:54:55;;;;;;;1.50;0.90;;;17.30;68.60;;;;;;5014381;28;20513;-80
2023/04/26 10:57:23;;;;;;;1.50;0.90;;;17.30;67.10;;;;;;5011976;28;20488;-80
2023/04/26 11:00:32;;;;;;;1.50;0.90;;;17.30;68.90;;;;;;5018095;28;20483;-79
2023/04/26 11:03:04;;;;;;;1.43;0.90;;;17.30;67.90;;;;;;4980167;28;20475;-80
2023/04/26 11:05:40;;;;;;;1.50;0.90;;;17.10;68.70;;;;;;5015057;28;20850;-79
2023/04/26 11:08:08;;;;;;;1.50;0.90;;;16.90;69.60;;;;;;4987475;28;20480;-79
2023/04/26 11:10:37;;;;;;;1.47;0.90;;;16.90;70.00;;;;;;5013573;28;20537;-80
2023/04/26 11:13:04;;;;;;;1.50;0.90;;;16.70;70.00;;;;;;4998029;28;20476;-78
2023/04/26 11:15:31;;;;;;;1.47;0.90;;;16.70;70.20;;;;;;5007829;28;20559;-78
2023/04/26 11:18:01;;;;;;;1.50;0.90;;;16.60;68.80;;;;;;4985132;28;20495;-78
2023/04/26 11:20:30;;;;;;;1.50;0.90;;;16.50;70.00;;;;;;5013721;28;20495;-78
2023/04/26 11:22:57;;;;;;;1.50;0.90;;;16.40;69.30;;;;;;4990415;28;20546;-78
2023/04/26 11:25:26;;;;;;;1.47;0.90;;;16.40;69.50;;;;;;5010435;28;20473;-78
2023/04/26 11:27:57;;;;;;;1.80;1.50;;;16.30;67.90;;;;;;4987393;28;20739;-78
2023/04/26 11:30:24;;;;;;;1.40;0.90;;;16.30;67.30;;;;;;5014667;28;20502;-78
2023/04/26 11:32:51;;;;;;;1.47;0.90;;;16.20;69.50;;;;;;4987209;28;20508;-79
2023/04/26 11:35:22;;;;;;;1.50;0.90;;;16.20;70.90;;;;;;5010279;28;20471;-79
2023/04/26 11:37:50;;;;;;;1.47;0.90;;;16.10;68.20;;;;;;4980821;28;20481;-79
2023/04/26 11:40:18;;;;;;;1.47;0.93;;;15.90;70.30;;;;;;5006159;28;20492;-78
2023/04/26 11:42:45;;;;;;;1.43;0.90;;;15.70;69.00;;;;;;4980911;28;20508;-79
2023/04/26 11:45:12;;;;;;;1.50;1.00;;;15.60;70.20;;;;;;5006857;28;20916;-80
2023/04/26 11:47:39;;;;;;;1.50;0.90;;;15.50;71.40;;;;;;4985240;28;20564;-79
2023/04/26 11:50:08;;;;;;;1.50;1.00;;;15.30;70.10;;;;;;5010693;28;20472;-79
2023/04/26 11:52:37;;;;;;;1.43;0.90;;;15.20;71.30;;;;;;4999729;28;20475;-79
2023/04/26 11:55:05;;;;;;;1.47;0.90;;;15.20;72.20;;;;;;5009140;28;20525;-79
2023/04/26 11:57:33;;;;;;;1.43;0.90;;;15.20;71.80;;;;;;5006927;28;20478;-79
2023/04/26 12:00:13;;;;;;;1.50;0.90;;;15.20;70.70;;;;;;5008383;28;20487;-79
2023/04/26 12:02:40;;;;;;;1.50;0.90;;;15.10;70.60;;;;;;4988184;28;20593;-79
2023/04/26 12:05:09;;;;;;;1.43;0.90;;;15.00;72.20;;;;;;5010917;28;20456;-78
2023/04/26 12:07:38;;;;;;;1.50;0.90;;;14.90;73.00;;;;;;4987113;28;20508;-79
2023/04/26 12:10:15;;;;;;;1.43;0.90;;;14.90;74.00;;;;;;5010369;28;20527;-79
2023/04/26 12:12:45;;;;;;;1.47;0.90;;;15.00;73.40;;;;;;4986280;28;20479;-79
2023/04/26 12:15:12;;;;;;;1.40;0.90;;;14.90;72.90;;;;;;5011129;28;20460;-79
2023/04/26 12:17:39;;;;;;;1.43;0.90;;;15.00;72.20;;;;;;4984414;28;20509;-79
2023/04/26 12:20:10;;;;;;;1.47;1.00;;;15.10;73.20;;;;;;5009370;28;20492;-79
2023/04/26 12:22:39;;;;;;;1.43;0.90;;;15.20;73.20;;;;;;4995880;28;20489;-79
2023/04/26 12:25:06;;;;;;;1.50;1.00;;;15.30;72.70;;;;;;5011371;28;20466;-79
2023/04/26 12:27:33;;;;;;;1.47;0.90;;;15.40;71.80;;;;;;4992488;28;20563;-79
2023/04/26 12:30:00;;;;;;;1.50;1.00;;;15.40;71.90;;;;;;5003896;28;20487;-79
2023/04/26 12:32:27;;;;;;;1.47;0.90;;;15.40;72.40;;;;;;4984566;28;20481;-79
2023/04/26 12:34:55;;;;;;;1.50;1.03;;;15.50;72.30;;;;;;5006040;28;20844;-78
2023/04/26 12:37:21;;;;;;;1.60;1.20;;;15.60;72.10;;;;;;4986811;28;21045;-78
2023/04/26 12:39:50;;;;;;;1.50;1.00;;;15.40;70.80;;;;;;5007433;28;20488;-78
2023/04/26 12:42:16;;;;;;;1.43;0.90;;;15.30;71.10;;;;;;4999835;28;20492;-79
2023/04/26 12:44:43;;;;;;;1.43;1.00;;;15.30;71.20;;;;;;5014264;28;20455;-78
2023/04/26 12:47:10;;;;;;;1.40;1.00;;;15.20;72.30;;;;;;5006878;28;20488;-78
2023/04/26 12:49:37;;;;;;;1.43;0.90;;;15.30;69.60;;;;;;5010730;28;20480;-79
2023/04/26 12:52:04;;;;;;;1.43;0.90;;;15.30;71.10;;;;;;4992372;28;20604;-79
2023/04/26 12:54:30;;;;;;;1.43;0.93;;;15.50;70.30;;;;;;5008344;28;20463;-79
2023/04/26 12:56:58;;;;;;;1.50;0.90;;;15.60;70.90;;;;;;4992601;28;20504;-79